createdAt,value
2022-08-26T00:02:23.738Z,59.63
2022-08-26T00:04:50.207Z,59.33
2022-08-26T00:07:16.758Z,59.45
2022-08-26T00:12:36.204Z,59.74
2022-08-26T00:15:05.093Z,59.42
2022-08-26T00:17:31.600Z,59.17
2022-08-26T00:19:58.049Z,59.56
2022-08-26T00:22:25.389Z,59.28
2022-08-26T00:27:48.862Z,59.84
2022-08-26T00:30:15.356Z,60.42
2022-08-26T00:32:42.039Z,60.35
2022-08-26T00:35:13.702Z,59.98
2022-08-26T00:37:42.264Z,60.37
2022-08-26T00:42:53.839Z,60.58
2022-08-26T00:45:20.328Z,60.61
2022-08-26T00:47:49.245Z,60.87
2022-08-26T00:50:17.005Z,61.36
2022-08-26T00:52:44.026Z,61.40
2022-08-26T00:57:54.684Z,61.52
2022-08-26T01:00:21.173Z,61.15
2022-08-26T01:02:48.555Z,61.37
2022-08-26T01:05:15.705Z,61.23
2022-08-26T01:07:43.561Z,60.83
2022-08-26T01:12:53.807Z,62.03
2022-08-26T01:15:21.144Z,62.15
2022-08-26T01:17:48.580Z,62.36
2022-08-26T01:20:15.972Z,62.52
2022-08-26T01:22:42.431Z,62.11
2022-08-26T01:28:04.180Z,62.08
2022-08-26T01:30:30.628Z,61.98
2022-08-26T01:32:57.900Z,62.27
2022-08-26T01:35:24.385Z,62.17
2022-08-26T01:37:50.833Z,62.28
2022-08-26T01:43:13.338Z,62.53
2022-08-26T01:45:39.823Z,62.15
2022-08-26T01:48:06.296Z,62.33
2022-08-26T01:50:33.694Z,62.36
2022-08-26T01:53:01.082Z,62.09
2022-08-26T01:58:23.483Z,62.67
2022-08-26T02:00:50.924Z,62.62
2022-08-26T02:03:17.447Z,62.27
2022-08-26T02:05:44.824Z,62.49
2022-08-26T02:08:15.322Z,62.59
2022-08-26T02:13:46.484Z,61.94
2022-08-26T02:16:14.147Z,61.99
2022-08-26T02:18:41.456Z,62.86
2022-08-26T02:21:09.406Z,63.08
2022-08-26T02:23:36.777Z,62.84
2022-08-26T02:28:48.381Z,62.89
2022-08-26T02:31:14.970Z,62.54
2022-08-26T02:33:42.939Z,63.24
2022-08-26T02:36:09.661Z,63.65
2022-08-26T02:38:39.504Z,64.02
2022-08-26T02:43:50.528Z,63.61
2022-08-26T02:46:28.047Z,63.66
2022-08-26T02:48:57.391Z,63.45
2022-08-26T02:51:25.331Z,63.97
2022-08-26T02:53:51.781Z,64.62
2022-08-26T02:59:13.202Z,64.96
2022-08-26T03:01:40.654Z,65.11
2022-08-26T03:04:08.122Z,65.43
2022-08-26T03:06:35.498Z,65.90
2022-08-26T03:09:04.238Z,65.10
2022-08-26T03:14:25.513Z,65.94
2022-08-26T03:16:53.035Z,65.96
2022-08-26T03:19:20.428Z,66.21
2022-08-26T03:21:47.791Z,66.04
2022-08-26T03:24:14.265Z,65.96
2022-08-26T03:29:35.528Z,66.32
2022-08-26T03:32:02.016Z,66.27
2022-08-26T03:34:29.405Z,66.25
2022-08-26T03:36:56.781Z,66.12
2022-08-26T03:39:24.178Z,66.75
2022-08-26T03:44:35.868Z,67.46
2022-08-26T03:47:04.523Z,66.93
2022-08-26T03:49:33.352Z,67.18
2022-08-26T03:52:01.691Z,67.14
2022-08-26T03:54:29.046Z,67.90
2022-08-26T03:59:50.815Z,68.39
2022-08-26T04:02:19.134Z,67.97
2022-08-26T04:04:45.606Z,67.40
2022-08-26T04:07:13.005Z,66.15
2022-08-26T04:09:39.466Z,65.38
2022-08-26T04:15:00.291Z,64.09
2022-08-26T04:17:26.719Z,63.34
2022-08-26T04:19:53.188Z,63.10
2022-08-26T04:22:24.872Z,62.04
2022-08-26T04:24:51.561Z,61.67
2022-08-26T04:30:02.122Z,62.38
2022-08-26T04:32:28.607Z,62.20
2022-08-26T04:34:55.970Z,61.88
2022-08-26T04:37:25.328Z,62.30
2022-08-26T04:39:53.072Z,63.21
2022-08-26T04:45:05.837Z,63.08
2022-08-26T04:47:36.517Z,61.80
2022-08-26T04:50:03.095Z,60.80
2022-08-26T04:52:30.559Z,60.39
2022-08-26T04:54:58.402Z,59.25
2022-08-26T05:00:09.770Z,59.00
2022-08-26T05:02:38.505Z,58.41
2022-08-26T05:05:06.196Z,58.18
2022-08-26T05:07:33.026Z,57.90
2022-08-26T05:09:59.775Z,58.02
2022-08-26T05:15:10.277Z,58.10
2022-08-26T05:17:37.650Z,57.47
2022-08-26T05:20:04.813Z,57.33
2022-08-26T05:22:33.876Z,57.58
2022-08-26T05:25:01.743Z,57.22
2022-08-26T05:30:13.822Z,57.03
2022-08-26T05:32:41.420Z,57.07
2022-08-26T05:35:09.647Z,56.64
2022-08-26T05:37:37.358Z,56.44
2022-08-26T05:40:05.102Z,56.20
2022-08-26T05:45:27.572Z,55.67
2022-08-26T05:47:54.092Z,55.77
2022-08-26T05:50:21.458Z,55.41
2022-08-26T05:52:50.240Z,55.40
2022-08-26T05:55:17.587Z,54.91
2022-08-26T06:00:41.637Z,54.76
2022-08-26T06:03:08.337Z,55.18
2022-08-26T06:05:38.269Z,55.11
2022-08-26T06:08:05.709Z,55.29
2022-08-26T06:10:33.736Z,55.05
2022-08-26T06:15:54.679Z,55.05
2022-08-26T06:18:22.443Z,55.12
2022-08-26T06:20:56.799Z,55.08
2022-08-26T06:23:24.951Z,55.03
2022-08-26T06:25:51.448Z,55.15
2022-08-26T06:31:14.840Z,55.03
2022-08-26T06:33:41.393Z,54.80
2022-08-26T06:36:08.810Z,54.70
2022-08-26T06:38:36.513Z,55.23
2022-08-26T06:41:03.597Z,54.97
2022-08-26T06:46:26.079Z,54.32
2022-08-26T06:48:52.649Z,54.46
2022-08-26T06:51:19.115Z,54.54
2022-08-26T06:53:49.775Z,54.53
2022-08-26T06:56:16.220Z,54.56
2022-08-26T07:01:27.186Z,54.07
2022-08-26T07:03:54.255Z,54.12
2022-08-26T07:06:23.461Z,54.41
2022-08-26T07:08:49.890Z,54.08
2022-08-26T07:11:16.427Z,54.14
2022-08-26T07:16:27.230Z,54.18
2022-08-26T07:18:55.807Z,54.11
2022-08-26T07:21:23.527Z,53.83
2022-08-26T07:23:50.247Z,54.09
2022-08-26T07:26:17.486Z,53.92
2022-08-26T07:31:42.698Z,53.94
2022-08-26T07:34:09.516Z,53.96
2022-08-26T07:36:36.172Z,54.11
2022-08-26T07:39:02.672Z,53.90
2022-08-26T07:41:31.081Z,53.82
2022-08-26T07:46:56.830Z,53.72
2022-08-26T07:49:23.450Z,53.44
2022-08-26T07:51:51.955Z,53.63
2022-08-26T07:54:19.882Z,53.60
2022-08-26T07:56:46.344Z,53.46
2022-08-26T08:02:00.400Z,53.48
2022-08-26T08:04:26.932Z,53.65
2022-08-26T08:06:54.196Z,53.49
2022-08-26T08:09:22.544Z,53.73
2022-08-26T08:11:51.381Z,53.67
2022-08-26T08:17:02.175Z,54.05
2022-08-26T08:19:36.636Z,53.72
2022-08-26T08:22:04.190Z,53.64
2022-08-26T08:24:43.425Z,53.84
2022-08-26T08:27:10.405Z,53.86
2022-08-26T08:32:21.753Z,53.88
2022-08-26T08:34:48.223Z,54.25
2022-08-26T08:37:14.618Z,53.88
2022-08-26T08:39:41.066Z,53.17
2022-08-26T08:42:07.575Z,52.67
2022-08-26T08:47:18.892Z,52.75
2022-08-26T08:49:47.121Z,53.15
2022-08-26T08:52:13.491Z,52.86
2022-08-26T08:54:40.725Z,53.01
2022-08-26T08:57:08.520Z,52.99
2022-08-26T09:02:18.917Z,52.70
2022-08-26T09:04:46.327Z,52.90
2022-08-26T09:07:12.776Z,52.94
2022-08-26T09:09:39.124Z,52.69
2022-08-26T09:12:05.487Z,52.82
2022-08-26T09:17:25.995Z,52.70
2022-08-26T09:19:53.267Z,53.91
2022-08-26T09:24:51.850Z,54.49
2022-08-26T09:27:19.407Z,54.80
2022-08-26T09:32:29.863Z,54.98
2022-08-26T09:34:56.232Z,55.11
2022-08-26T09:37:22.666Z,55.52
2022-08-26T09:39:49.079Z,55.66
2022-08-26T09:42:16.766Z,55.34
2022-08-26T09:47:27.827Z,55.67
2022-08-26T09:49:54.808Z,56.12
2022-08-26T09:52:22.086Z,56.04
2022-08-26T09:54:48.456Z,56.45
2022-08-26T09:57:15.685Z,56.43
2022-08-26T09:59:42.022Z,56.13
2022-08-26T10:02:12.293Z,56.38
2022-08-26T10:04:42.350Z,56.51
2022-08-26T10:07:12.373Z,56.69
2022-08-26T10:09:42.410Z,56.76
2022-08-26T10:12:09.033Z,56.92
2022-08-26T10:14:39.311Z,56.85
2022-08-26T10:17:06.836Z,56.82
2022-08-26T10:19:55.943Z,56.88
2022-08-26T10:22:21.891Z,57.16
2022-08-26T10:24:54.486Z,56.92
2022-08-26T10:27:21.455Z,57.14
2022-08-26T10:29:48.014Z,57.12
2022-08-26T10:32:14.881Z,57.42
2022-08-26T10:34:41.395Z,57.80
2022-08-26T10:37:13.472Z,57.89
2022-08-26T10:39:41.532Z,57.32
2022-08-26T10:42:09.895Z,57.37
2022-08-26T10:44:37.440Z,57.56
2022-08-26T10:47:08.407Z,58.06
2022-08-26T10:49:34.847Z,57.93
2022-08-26T10:52:01.337Z,58.06
2022-08-26T10:54:27.812Z,58.33
2022-08-26T10:56:55.393Z,58.20
2022-08-26T10:59:22.786Z,58.26
2022-08-26T11:01:52.636Z,58.25
2022-08-26T11:04:20.242Z,58.60
2022-08-26T11:06:50.006Z,58.36
2022-08-26T11:09:16.491Z,58.69
2022-08-26T11:11:42.961Z,58.52
2022-08-26T11:14:10.355Z,58.54
2022-08-26T11:16:42.890Z,58.63
2022-08-26T11:19:10.239Z,58.43
2022-08-26T11:21:36.758Z,58.53
2022-08-26T11:24:03.319Z,58.56
2022-08-26T11:26:43.141Z,58.69
2022-08-26T11:29:19.985Z,58.68
2022-08-26T11:31:47.532Z,58.88
2022-08-26T11:34:14.034Z,58.76
2022-08-26T11:36:40.509Z,58.72
2022-08-26T11:39:07.427Z,58.83
2022-08-26T11:41:34.823Z,59.07
2022-08-26T11:44:02.337Z,59.49
2022-08-26T11:46:29.000Z,59.10
2022-08-26T11:48:56.386Z,59.27
2022-08-26T11:51:24.378Z,59.38
2022-08-26T11:53:52.013Z,59.19
2022-08-26T11:56:19.413Z,59.61
2022-08-26T11:58:47.939Z,59.63
2022-08-26T12:01:14.435Z,59.34
2022-08-26T12:03:44.559Z,59.65
2022-08-26T12:06:12.059Z,59.62
2022-08-26T12:08:41.634Z,59.55
2022-08-26T12:11:08.132Z,59.65
2022-08-26T12:13:35.528Z,59.89
2022-08-26T12:16:04.431Z,59.70
2022-08-26T12:18:32.526Z,59.90
2022-08-26T12:21:01.182Z,59.83
2022-08-26T12:23:28.911Z,59.95
2022-08-26T12:25:55.596Z,60.01
2022-08-26T12:28:23.361Z,60.07
2022-08-26T12:30:50.732Z,59.98
2022-08-26T12:36:11.613Z,60.17
2022-08-26T12:38:39.425Z,60.51
2022-08-26T12:41:06.901Z,60.16
2022-08-26T12:43:34.381Z,60.35
2022-08-26T12:46:01.795Z,60.48
2022-08-26T12:51:13.630Z,60.63
2022-08-26T12:53:40.128Z,60.68
2022-08-26T12:56:06.634Z,60.57
2022-08-26T12:58:34.050Z,60.84
2022-08-26T13:01:00.636Z,60.79
2022-08-26T13:06:15.932Z,60.74
2022-08-26T13:08:43.713Z,60.90
2022-08-26T13:11:10.217Z,60.81
2022-08-26T13:13:37.636Z,61.00
2022-08-26T13:16:06.125Z,60.68
2022-08-26T13:21:17.495Z,61.17
2022-08-26T13:23:44.876Z,61.29
2022-08-26T13:26:11.379Z,61.15
2022-08-26T13:28:37.873Z,61.27
2022-08-26T13:31:05.413Z,61.32
2022-08-26T13:36:17.894Z,61.33
2022-08-26T13:38:45.266Z,61.26
2022-08-26T13:41:28.903Z,61.36
2022-08-26T13:43:57.052Z,61.45
2022-08-26T13:46:25.495Z,61.66
2022-08-26T13:51:35.808Z,61.68
2022-08-26T13:54:02.282Z,61.67
2022-08-26T13:56:28.790Z,61.86
2022-08-26T13:58:56.141Z,62.01
2022-08-26T14:01:22.607Z,62.01
2022-08-26T14:06:43.085Z,62.23
2022-08-26T14:09:11.448Z,61.92
2022-08-26T14:11:50.715Z,62.05
2022-08-26T14:14:21.211Z,62.16
2022-08-26T14:16:58.695Z,61.98
2022-08-26T14:22:30.682Z,62.54
2022-08-26T14:24:57.252Z,62.42
2022-08-26T14:27:23.721Z,62.56
2022-08-26T14:29:50.218Z,62.37
2022-08-26T14:32:17.898Z,62.26
2022-08-26T14:34:47.876Z,62.37
2022-08-26T14:37:15.391Z,62.59
2022-08-26T14:39:42.914Z,62.44
2022-08-26T14:42:10.296Z,62.59
2022-08-26T14:44:36.987Z,62.33
2022-08-26T14:47:04.466Z,62.43
2022-08-26T14:52:14.811Z,62.53
2022-08-26T14:54:42.204Z,62.70
2022-08-26T14:57:08.680Z,62.40
2022-08-26T14:59:35.202Z,62.63
2022-08-26T15:02:02.745Z,62.34
2022-08-26T15:07:23.081Z,62.39
2022-08-26T15:09:49.546Z,62.26
2022-08-26T15:12:16.237Z,62.46
2022-08-26T15:14:43.577Z,62.37
2022-08-26T15:17:10.100Z,62.43
2022-08-26T15:22:31.438Z,62.16
2022-08-26T15:24:57.930Z,62.15
2022-08-26T15:27:24.471Z,62.49
2022-08-26T15:29:51.061Z,62.39
2022-08-26T15:32:17.453Z,62.03
2022-08-26T15:37:30.589Z,62.23
2022-08-26T15:39:57.106Z,62.35
2022-08-26T15:42:23.664Z,62.24
2022-08-26T15:44:50.065Z,62.05
2022-08-26T15:47:17.335Z,62.37
2022-08-26T15:52:28.442Z,62.47
2022-08-26T15:54:55.778Z,62.48
2022-08-26T15:57:23.453Z,61.78
2022-08-26T15:59:51.029Z,61.30
2022-08-26T16:02:18.341Z,60.20
2022-08-26T16:07:29.370Z,60.26
2022-08-26T16:09:55.763Z,60.15
2022-08-26T16:12:22.177Z,60.16
2022-08-26T16:14:49.439Z,60.00
2022-08-26T16:17:19.193Z,59.51
2022-08-26T16:22:29.498Z,59.73
2022-08-26T16:25:00.540Z,59.62
2022-08-26T16:27:27.863Z,59.62
2022-08-26T16:29:54.282Z,60.20
2022-08-26T16:32:21.551Z,59.32
2022-08-26T16:37:42.645Z,58.92
2022-08-26T16:40:09.969Z,58.04
2022-08-26T16:42:36.455Z,59.43
2022-08-26T16:45:02.886Z,58.92
2022-08-26T16:47:30.151Z,59.52
2022-08-26T16:52:51.188Z,59.07
2022-08-26T16:55:22.029Z,59.27
2022-08-26T16:57:49.290Z,59.82
2022-08-26T17:00:15.725Z,59.08
2022-08-26T17:02:42.195Z,58.42
2022-08-26T17:08:04.120Z,59.47
2022-08-26T17:10:31.531Z,60.12
2022-08-26T17:12:57.985Z,60.10
2022-08-26T17:15:24.398Z,60.28
2022-08-26T17:17:51.645Z,60.15
2022-08-26T17:23:12.611Z,60.28
2022-08-26T17:25:39.037Z,60.48
2022-08-26T17:28:07.534Z,59.72
2022-08-26T17:30:39.816Z,59.48
2022-08-26T17:33:10.641Z,59.52
2022-08-26T17:38:33.262Z,57.29
2022-08-26T17:41:00.502Z,56.70
2022-08-26T17:43:26.919Z,55.28
2022-08-26T17:45:54.204Z,54.40
2022-08-26T17:48:20.691Z,54.13
2022-08-26T17:53:41.743Z,46.31
2022-08-26T17:56:09.131Z,45.12
2022-08-26T17:58:35.617Z,45.62
2022-08-26T18:01:02.132Z,45.16
2022-08-26T18:03:29.605Z,45.80
2022-08-26T18:08:51.020Z,46.16
2022-08-26T18:11:17.524Z,44.97
2022-08-26T18:13:46.984Z,45.55
2022-08-26T18:16:14.219Z,45.81
2022-08-26T18:18:40.692Z,45.34
2022-08-26T18:24:01.543Z,45.69
2022-08-26T18:26:28.952Z,45.44
2022-08-26T18:28:55.427Z,45.56
2022-08-26T18:31:22.880Z,46.19
2022-08-26T18:33:50.311Z,46.55
2022-08-26T18:39:10.941Z,46.11
2022-08-26T18:41:37.425Z,46.42
2022-08-26T18:44:04.862Z,46.48
2022-08-26T18:46:31.508Z,47.08
2022-08-26T18:48:58.029Z,46.97
2022-08-26T18:54:09.594Z,47.90
2022-08-26T18:56:36.098Z,47.81
2022-08-26T18:59:03.530Z,48.00
2022-08-26T19:01:31.060Z,48.05
2022-08-26T19:03:57.609Z,48.35
2022-08-26T19:09:09.027Z,48.30
2022-08-26T19:11:37.416Z,48.46
2022-08-26T19:14:10.500Z,48.47
2022-08-26T19:16:37.924Z,48.45
2022-08-26T19:19:04.444Z,48.20
2022-08-26T19:24:26.045Z,47.93
2022-08-26T19:26:57.566Z,47.97
2022-08-26T19:29:24.630Z,48.05
2022-08-26T19:31:51.186Z,48.61
2022-08-26T19:34:20.233Z,48.74
2022-08-26T19:39:32.579Z,49.70
2022-08-26T19:41:59.080Z,49.93
2022-08-26T19:44:25.574Z,49.87
2022-08-26T19:46:52.088Z,50.08
2022-08-26T19:49:18.576Z,50.04
2022-08-26T19:54:29.491Z,50.38
2022-08-26T19:56:56.899Z,50.94
2022-08-26T19:59:23.360Z,50.72
2022-08-26T20:02:00.641Z,50.91
2022-08-26T20:04:28.946Z,50.91
2022-08-26T20:09:50.545Z,50.52
2022-08-26T20:12:17.934Z,50.84
2022-08-26T20:14:45.313Z,50.67
2022-08-26T20:17:11.804Z,51.15
2022-08-26T20:19:39.196Z,50.81
2022-08-26T20:25:00.549Z,50.60
2022-08-26T20:27:27.265Z,49.89
2022-08-26T20:30:05.248Z,49.91
2022-08-26T20:32:35.603Z,49.29
2022-08-26T20:35:02.329Z,49.49
2022-08-26T20:40:14.203Z,49.12
2022-08-26T20:42:41.670Z,48.01
2022-08-26T20:45:09.218Z,48.49
2022-08-26T20:47:35.774Z,48.54
2022-08-26T20:50:02.340Z,48.70
2022-08-26T20:55:23.707Z,50.08
2022-08-26T20:57:51.164Z,51.04
2022-08-26T21:00:18.611Z,51.19
2022-08-26T21:02:48.377Z,51.08
2022-08-26T21:05:15.874Z,50.63
2022-08-26T21:10:36.769Z,50.86
2022-08-26T21:13:04.222Z,51.25
2022-08-26T21:15:31.682Z,50.77
2022-08-26T21:17:58.324Z,50.85
2022-08-26T21:20:25.770Z,50.43
2022-08-26T21:25:37.367Z,50.39
2022-08-26T21:28:04.810Z,50.58
2022-08-26T21:30:32.265Z,50.62
2022-08-26T21:32:59.682Z,51.09
2022-08-26T21:35:27.195Z,50.94
2022-08-26T21:40:39.067Z,52.88
2022-08-26T21:43:06.510Z,52.08
2022-08-26T21:45:34.002Z,51.99
2022-08-26T21:48:01.503Z,51.45
2022-08-26T21:50:28.969Z,51.28
2022-08-26T21:55:49.693Z,51.79
2022-08-26T21:58:17.343Z,51.93
2022-08-26T22:00:44.859Z,52.04
2022-08-26T22:03:12.301Z,52.19
2022-08-26T22:05:39.775Z,52.03
2022-08-26T22:10:52.373Z,52.10
2022-08-26T22:13:18.913Z,51.73
2022-08-26T22:15:46.387Z,51.62
2022-08-26T22:18:13.822Z,51.77
2022-08-26T22:20:41.259Z,51.43
2022-08-26T22:25:51.609Z,51.87
2022-08-26T22:28:19.024Z,51.84
2022-08-26T22:30:45.570Z,52.18
2022-08-26T22:33:12.991Z,51.81
2022-08-26T22:35:39.572Z,51.98
2022-08-26T22:40:52.433Z,51.90
2022-08-26T22:43:18.980Z,52.58
2022-08-26T22:45:45.568Z,52.70
2022-08-26T22:48:12.281Z,52.35
2022-08-26T22:50:39.772Z,52.57
2022-08-26T22:56:01.191Z,52.47
2022-08-26T22:58:30.962Z,53.04
2022-08-26T23:00:57.654Z,53.39
2022-08-26T23:03:27.012Z,53.12
2022-08-26T23:05:53.603Z,53.43
2022-08-26T23:11:04.955Z,53.52
2022-08-26T23:13:32.394Z,53.78
2022-08-26T23:15:58.996Z,53.64
2022-08-26T23:18:25.499Z,53.55
2022-08-26T23:20:52.019Z,53.94
2022-08-26T23:26:17.561Z,54.79
2022-08-26T23:28:44.352Z,54.99
2022-08-26T23:31:11.822Z,54.84
2022-08-26T23:33:39.273Z,54.99
2022-08-26T23:36:05.795Z,54.87
2022-08-26T23:41:26.389Z,55.99
2022-08-26T23:43:52.998Z,56.35
2022-08-26T23:46:20.476Z,56.23
2022-08-26T23:48:46.994Z,56.27
2022-08-26T23:51:14.451Z,56.66
2022-08-26T23:56:26.841Z,57.11
2022-08-26T23:58:54.378Z,57.15
